createdAt,value
2019-01-04T00:00:30.263Z,91.14
2019-01-04T00:01:30.254Z,90.69
2019-01-04T00:02:30.205Z,90.48
2019-01-04T00:03:30.192Z,90.31
2019-01-04T00:04:30.186Z,90.27
2019-01-04T00:05:30.183Z,90.62
2019-01-04T00:06:30.159Z,90.48
2019-01-04T00:07:30.183Z,89.96
2019-01-04T00:08:30.134Z,90.37
2019-01-04T00:09:30.171Z,90.27
2019-01-04T00:10:30.148Z,90.37
2019-01-04T00:11:30.111Z,89.65
2019-01-04T00:12:30.179Z,89.65
2019-01-04T00:13:30.081Z,90.37
2019-01-04T00:14:30.113Z,89.96
2019-01-04T00:15:30.101Z,89.96
2019-01-04T00:16:30.053Z,90.58
2019-01-04T00:17:30.043Z,90.48
2019-01-04T00:18:30.026Z,89.92
2019-01-04T00:19:30.066Z,90.02
2019-01-04T00:20:30.046Z,90.23
2019-01-04T00:21:29.996Z,89.92
2019-01-04T00:22:29.982Z,89.81
2019-01-04T00:23:29.972Z,89.29
2019-01-04T00:24:30.037Z,89.09
2019-01-04T00:25:30.002Z,89.40
2019-01-04T00:26:29.945Z,89.50
2019-01-04T00:27:29.927Z,89.61
2019-01-04T00:28:29.959Z,90.54
2019-01-04T00:29:29.907Z,89.75
2019-01-04T00:30:29.896Z,89.86
2019-01-04T00:31:29.883Z,90.17
2019-01-04T00:32:29.934Z,89.29
2019-01-04T00:33:29.863Z,89.23
2019-01-04T00:34:29.890Z,89.13
2019-01-04T00:35:29.842Z,89.40
2019-01-04T00:36:29.867Z,89.09
2019-01-04T00:37:29.820Z,89.44
2019-01-04T00:38:29.831Z,89.50
2019-01-04T00:39:29.810Z,89.19
2019-01-04T00:40:29.785Z,88.78
2019-01-04T00:41:29.815Z,88.88
2019-01-04T00:42:29.768Z,89.03
2019-01-04T00:43:29.755Z,88.78
2019-01-04T00:44:29.748Z,88.98
2019-01-04T00:45:29.729Z,88.98
2019-01-04T00:46:29.721Z,88.98
2019-01-04T00:47:29.754Z,88.98
2019-01-04T00:48:29.739Z,88.78
2019-01-04T00:49:29.689Z,88.78
2019-01-04T00:50:29.682Z,88.15
2019-01-04T00:51:29.665Z,88.15
2019-01-04T00:52:29.656Z,88.36
2019-01-04T00:53:29.646Z,88.05
2019-01-04T00:54:29.681Z,87.74
2019-01-04T00:55:29.624Z,88.09
2019-01-04T00:56:29.619Z,88.20
2019-01-04T00:57:29.608Z,88.26
2019-01-04T00:58:29.590Z,88.20
2019-01-04T00:59:29.582Z,88.20
2019-01-04T01:00:29.607Z,88.26
2019-01-04T01:01:29.559Z,88.20
2019-01-04T01:02:29.555Z,88.30
2019-01-04T01:03:29.533Z,89.23
2019-01-04T01:04:29.525Z,89.27
2019-01-04T01:05:29.560Z,89.23
2019-01-04T01:06:29.502Z,89.37
2019-01-04T01:07:29.490Z,89.75
2019-01-04T01:08:29.500Z,89.27
2019-01-04T01:09:29.516Z,89.17
2019-01-04T01:10:29.464Z,88.92
2019-01-04T01:11:29.457Z,89.03
2019-01-04T01:12:29.438Z,89.44
2019-01-04T01:13:29.426Z,89.23
2019-01-04T01:14:29.430Z,88.71
2019-01-04T01:15:29.457Z,88.82
2019-01-04T01:16:29.396Z,89.44
2019-01-04T01:17:29.382Z,89.13
2019-01-04T01:18:29.371Z,89.03
2019-01-04T01:19:29.407Z,88.92
2019-01-04T01:20:29.364Z,88.96
2019-01-04T01:21:29.400Z,89.54
2019-01-04T01:22:29.330Z,89.13
2019-01-04T01:23:29.317Z,89.03
2019-01-04T01:24:29.376Z,89.13
2019-01-04T01:25:29.295Z,88.30
2019-01-04T01:26:29.284Z,88.30
2019-01-04T01:27:29.283Z,88.71
2019-01-04T01:28:29.342Z,88.15
2019-01-04T01:29:29.256Z,87.88
2019-01-04T01:30:29.252Z,88.15
2019-01-04T01:31:29.233Z,87.37
2019-01-04T01:32:29.230Z,88.26
2019-01-04T01:33:29.208Z,87.99
2019-01-04T01:34:29.236Z,88.51
2019-01-04T01:35:29.201Z,87.78
2019-01-04T01:36:29.176Z,87.88
2019-01-04T01:37:29.207Z,88.40
2019-01-04T01:38:29.162Z,88.09
2019-01-04T01:39:29.158Z,88.20
2019-01-04T01:40:29.185Z,88.30
2019-01-04T01:41:29.164Z,87.88
2019-01-04T01:42:29.126Z,88.20
2019-01-04T01:43:29.105Z,88.09
2019-01-04T01:44:29.095Z,88.30
2019-01-04T01:45:29.082Z,87.99
2019-01-04T01:46:29.098Z,88.20
2019-01-04T01:47:29.101Z,88.51
2019-01-04T01:48:29.060Z,88.05
2019-01-04T01:49:29.038Z,88.09
2019-01-04T01:50:29.061Z,88.05
2019-01-04T01:51:29.012Z,87.95
2019-01-04T01:52:29.001Z,87.84
2019-01-04T01:53:28.992Z,88.36
2019-01-04T01:54:29.032Z,87.74
2019-01-04T01:55:28.978Z,87.53
2019-01-04T01:56:28.959Z,87.12
2019-01-04T01:57:28.950Z,87.32
2019-01-04T01:58:28.937Z,87.22
2019-01-04T01:59:28.924Z,87.12
2019-01-04T02:00:29.043Z,86.97
2019-01-04T02:01:28.911Z,86.76
2019-01-04T02:02:28.899Z,86.49
2019-01-04T02:03:28.884Z,86.49
2019-01-04T02:04:28.872Z,86.35
2019-01-04T02:05:28.868Z,86.45
2019-01-04T02:06:28.898Z,86.35
2019-01-04T02:07:28.845Z,86.45
2019-01-04T02:08:28.879Z,86.80
2019-01-04T02:09:28.818Z,86.76
2019-01-04T02:10:28.806Z,87.22
2019-01-04T02:11:28.795Z,87.22
2019-01-04T02:12:28.786Z,86.80
2019-01-04T02:13:28.798Z,87.22
2019-01-04T02:14:28.829Z,87.22
2019-01-04T02:15:28.758Z,87.01
2019-01-04T02:16:28.740Z,87.01
2019-01-04T02:17:28.786Z,87.43
2019-01-04T02:18:28.723Z,86.80
2019-01-04T02:19:28.709Z,86.76
2019-01-04T02:20:28.702Z,86.87
2019-01-04T02:21:28.687Z,86.76
2019-01-04T02:22:28.675Z,86.80
2019-01-04T02:23:28.708Z,86.80
2019-01-04T02:24:28.654Z,87.32
2019-01-04T02:25:28.651Z,87.26
2019-01-04T02:26:28.640Z,87.57
2019-01-04T02:27:28.633Z,88.09
2019-01-04T02:28:28.637Z,88.09
2019-01-04T02:29:28.641Z,88.51
2019-01-04T02:30:28.590Z,88.40
2019-01-04T02:31:28.580Z,88.09
2019-01-04T02:32:28.568Z,87.88
2019-01-04T02:33:28.562Z,88.20
2019-01-04T02:34:28.564Z,88.30
2019-01-04T02:35:28.587Z,88.30
2019-01-04T02:36:28.534Z,88.09
2019-01-04T02:37:28.524Z,89.34
2019-01-04T02:38:28.530Z,89.03
2019-01-04T02:39:28.497Z,87.99
2019-01-04T02:40:28.490Z,88.09
2019-01-04T02:41:28.511Z,88.30
2019-01-04T02:42:28.467Z,88.30
2019-01-04T02:43:28.454Z,88.51
2019-01-04T02:44:28.441Z,87.88
2019-01-04T02:45:28.428Z,87.99
2019-01-04T02:46:28.416Z,88.51
2019-01-04T02:47:28.445Z,88.34
2019-01-04T02:48:28.399Z,88.61
2019-01-04T02:49:28.461Z,88.51
2019-01-04T02:50:28.376Z,88.40
2019-01-04T02:51:28.364Z,88.30
2019-01-04T02:52:28.396Z,88.40
2019-01-04T02:53:28.344Z,88.26
2019-01-04T02:54:28.331Z,88.20
2019-01-04T02:55:28.333Z,88.46
2019-01-04T02:56:28.309Z,87.57
2019-01-04T02:57:28.300Z,87.32
2019-01-04T02:58:28.330Z,87.12
2019-01-04T02:59:28.281Z,87.47
2019-01-04T03:00:28.265Z,87.78
2019-01-04T03:01:28.271Z,87.78
2019-01-04T03:02:28.250Z,87.01
2019-01-04T03:03:28.242Z,87.63
2019-01-04T03:04:28.267Z,87.22
2019-01-04T03:05:28.214Z,87.53
2019-01-04T03:06:28.201Z,87.05
2019-01-04T03:07:28.199Z,87.53
2019-01-04T03:08:28.184Z,86.49
2019-01-04T03:09:28.172Z,86.29
2019-01-04T03:10:28.196Z,86.39
2019-01-04T03:11:28.190Z,86.39
2019-01-04T03:12:28.138Z,86.70
2019-01-04T03:13:28.141Z,87.05
2019-01-04T03:14:28.158Z,86.95
2019-01-04T03:15:28.104Z,86.74
2019-01-04T03:16:28.108Z,87.16
2019-01-04T03:17:28.085Z,87.16
2019-01-04T03:18:28.074Z,87.01
2019-01-04T03:19:28.104Z,87.12
2019-01-04T03:20:28.055Z,87.05
2019-01-04T03:21:28.047Z,86.74
2019-01-04T03:22:28.044Z,86.85
2019-01-04T03:23:28.038Z,87.37
2019-01-04T03:24:28.011Z,86.85
2019-01-04T03:25:28.039Z,87.47
2019-01-04T03:26:27.984Z,87.43
2019-01-04T03:27:27.975Z,87.26
2019-01-04T03:28:27.963Z,87.37
2019-01-04T03:29:27.955Z,86.39
2019-01-04T03:30:27.974Z,86.64
2019-01-04T03:31:28.000Z,87.16
2019-01-04T03:32:27.931Z,86.74
2019-01-04T03:33:27.910Z,87.05
2019-01-04T03:34:27.901Z,87.68
2019-01-04T03:35:27.891Z,87.32
2019-01-04T03:36:27.880Z,86.85
2019-01-04T03:37:27.912Z,87.47
2019-01-04T03:38:27.897Z,87.47
2019-01-04T03:39:27.848Z,87.16
2019-01-04T03:40:27.833Z,87.05
2019-01-04T03:41:27.862Z,87.37
2019-01-04T03:42:27.814Z,87.37
2019-01-04T03:43:27.815Z,87.05
2019-01-04T03:44:27.794Z,86.29
2019-01-04T03:45:27.780Z,86.49
2019-01-04T03:46:27.813Z,86.54
2019-01-04T03:47:27.758Z,86.49
2019-01-04T03:48:27.792Z,86.74
2019-01-04T03:49:27.741Z,86.74
2019-01-04T03:50:27.730Z,87.26
2019-01-04T03:51:27.714Z,86.95
2019-01-04T03:52:27.707Z,87.26
2019-01-04T03:53:27.739Z,87.26
2019-01-04T03:54:27.698Z,87.16
2019-01-04T03:55:27.672Z,87.16
2019-01-04T03:56:27.678Z,87.57
2019-01-04T03:57:27.696Z,87.05
2019-01-04T03:58:27.640Z,86.60
2019-01-04T03:59:27.632Z,86.39
2019-01-04T04:00:27.622Z,86.60
2019-01-04T04:01:27.614Z,86.18
2019-01-04T04:02:27.648Z,86.18
2019-01-04T04:03:27.585Z,86.60
2019-01-04T04:04:27.577Z,86.49
2019-01-04T04:05:27.569Z,87.32
2019-01-04T04:06:27.594Z,87.12
2019-01-04T04:07:27.541Z,87.74
2019-01-04T04:08:27.551Z,86.85
2019-01-04T04:09:27.520Z,87.01
2019-01-04T04:10:27.511Z,87.43
2019-01-04T04:11:27.540Z,87.78
2019-01-04T04:12:27.504Z,87.37
2019-01-04T04:13:27.484Z,87.32
2019-01-04T04:14:27.512Z,87.22
2019-01-04T04:15:27.455Z,87.22
2019-01-04T04:16:27.452Z,87.32
2019-01-04T04:17:27.460Z,87.32
2019-01-04T04:18:27.434Z,87.32
2019-01-04T04:19:27.456Z,87.16
2019-01-04T04:20:27.466Z,87.16
2019-01-04T04:21:27.433Z,87.22
2019-01-04T04:22:27.396Z,87.12
2019-01-04T04:23:27.412Z,87.05
2019-01-04T04:24:27.361Z,87.74
2019-01-04T04:25:27.358Z,87.53
2019-01-04T04:26:27.350Z,87.22
2019-01-04T04:27:27.332Z,87.37
2019-01-04T04:28:27.363Z,87.78
2019-01-04T04:29:27.311Z,87.53
2019-01-04T04:30:27.299Z,87.32
2019-01-04T04:31:27.283Z,87.43
2019-01-04T04:32:27.272Z,87.12
2019-01-04T04:33:27.269Z,87.22
2019-01-04T04:34:27.295Z,87.12
2019-01-04T04:35:27.348Z,87.01
2019-01-04T04:36:27.276Z,87.12
2019-01-04T04:37:27.276Z,87.01
2019-01-04T04:38:27.209Z,87.28
2019-01-04T04:39:27.212Z,86.55
2019-01-04T04:40:27.186Z,86.35
2019-01-04T04:41:27.182Z,86.29
2019-01-04T04:42:27.241Z,86.49
2019-01-04T04:43:27.157Z,86.49
2019-01-04T04:44:27.189Z,86.29
2019-01-04T04:45:27.130Z,86.18
2019-01-04T04:46:27.120Z,86.60
2019-01-04T04:47:27.125Z,85.87
2019-01-04T04:48:27.157Z,86.18
2019-01-04T04:49:27.088Z,86.60
2019-01-04T04:50:27.076Z,86.18
2019-01-04T04:51:27.107Z,85.87
2019-01-04T04:52:27.061Z,86.08
2019-01-04T04:53:27.137Z,85.66
2019-01-04T04:54:27.032Z,85.87
2019-01-04T04:55:27.062Z,85.87
2019-01-04T04:56:27.016Z,85.81
2019-01-04T04:57:27.025Z,86.18
2019-01-04T04:58:26.987Z,86.08
2019-01-04T04:59:27.033Z,86.08
2019-01-04T05:00:26.967Z,86.08
2019-01-04T05:01:26.959Z,85.21
2019-01-04T05:02:26.951Z,85.66
2019-01-04T05:03:26.935Z,86.08
2019-01-04T05:04:26.963Z,85.77
2019-01-04T05:05:26.921Z,85.04
2019-01-04T05:06:26.918Z,85.14
2019-01-04T05:07:26.892Z,85.14
2019-01-04T05:08:26.880Z,85.35
2019-01-04T05:09:26.872Z,85.35
2019-01-04T05:10:26.900Z,86.18
2019-01-04T05:11:26.850Z,85.35
2019-01-04T05:12:26.849Z,85.73
2019-01-04T05:13:26.832Z,85.66
2019-01-04T05:14:26.815Z,85.31
2019-01-04T05:15:26.805Z,85.77
2019-01-04T05:16:26.837Z,86.45
2019-01-04T05:17:26.781Z,85.63
2019-01-04T05:18:26.771Z,85.35
2019-01-04T05:19:26.765Z,85.97
2019-01-04T05:20:26.770Z,86.29
2019-01-04T05:21:26.763Z,86.70
2019-01-04T05:22:26.816Z,86.49
2019-01-04T05:23:26.718Z,86.60
2019-01-04T05:24:26.706Z,86.70
2019-01-04T05:25:26.697Z,86.95
2019-01-04T05:26:26.684Z,86.70
2019-01-04T05:27:26.684Z,86.60
2019-01-04T05:28:26.716Z,86.70
2019-01-04T05:29:26.810Z,87.12
2019-01-04T05:30:26.645Z,86.80
2019-01-04T05:31:26.627Z,86.49
2019-01-04T05:32:26.627Z,86.49
2019-01-04T05:33:26.607Z,86.49
2019-01-04T05:34:26.599Z,86.66
2019-01-04T05:35:26.824Z,86.80
2019-01-04T05:36:26.577Z,86.49
2019-01-04T05:37:26.567Z,86.55
2019-01-04T05:38:26.593Z,85.87
2019-01-04T05:39:26.544Z,85.97
2019-01-04T05:40:26.529Z,85.87
2019-01-04T05:41:26.801Z,86.49
2019-01-04T05:42:26.511Z,86.60
2019-01-04T05:43:26.510Z,86.60
2019-01-04T05:44:26.487Z,86.29
2019-01-04T05:45:26.474Z,86.29
2019-01-04T05:46:26.465Z,86.15
2019-01-04T05:47:26.497Z,85.83
2019-01-04T05:48:26.462Z,85.21
2019-01-04T05:49:26.441Z,85.52
2019-01-04T05:50:26.424Z,85.46
2019-01-04T05:51:26.414Z,85.31
2019-01-04T05:52:26.402Z,86.08
2019-01-04T05:53:26.430Z,85.87
2019-01-04T05:54:26.387Z,85.77
2019-01-04T05:55:26.369Z,86.04
2019-01-04T05:56:26.363Z,86.35
2019-01-04T05:57:26.371Z,85.77
2019-01-04T05:58:26.339Z,85.00
2019-01-04T05:59:26.369Z,85.21
2019-01-04T06:00:26.315Z,85.21
2019-01-04T06:01:26.324Z,85.11
2019-01-04T06:02:26.299Z,85.56
2019-01-04T06:03:26.296Z,85.31
2019-01-04T06:04:26.277Z,85.42
2019-01-04T06:05:26.316Z,85.21
2019-01-04T06:06:26.307Z,85.52
2019-01-04T06:07:26.246Z,84.80
2019-01-04T06:08:26.240Z,83.86
2019-01-04T06:09:26.216Z,84.48
2019-01-04T06:10:26.259Z,85.11
2019-01-04T06:11:26.197Z,85.11
2019-01-04T06:12:26.267Z,84.80
2019-01-04T06:13:26.247Z,84.80
2019-01-04T06:14:26.217Z,83.97
2019-01-04T06:15:26.150Z,84.90
2019-01-04T06:16:26.149Z,84.59
2019-01-04T06:17:26.173Z,85.11
2019-01-04T06:18:26.141Z,83.90
2019-01-04T06:19:26.113Z,83.28
2019-01-04T06:20:26.144Z,83.90
2019-01-04T06:21:26.101Z,84.63
2019-01-04T06:22:26.100Z,84.90
2019-01-04T06:23:26.065Z,84.31
2019-01-04T06:24:26.114Z,84.11
2019-01-04T06:25:26.064Z,84.11
2019-01-04T06:26:26.072Z,85.04
2019-01-04T06:27:26.035Z,84.94
2019-01-04T06:28:26.029Z,84.94
2019-01-04T06:29:26.028Z,85.35
2019-01-04T06:30:26.059Z,84.63
2019-01-04T06:31:25.997Z,84.11
2019-01-04T06:32:25.973Z,84.73
2019-01-04T06:33:25.982Z,84.48
2019-01-04T06:34:25.945Z,84.94
2019-01-04T06:35:25.971Z,85.66
2019-01-04T06:36:25.972Z,84.59
2019-01-04T06:37:25.910Z,84.59
2019-01-04T06:38:25.903Z,84.80
2019-01-04T06:39:26.180Z,84.83
2019-01-04T06:40:25.889Z,84.48
2019-01-04T06:41:25.890Z,84.63
2019-01-04T06:42:25.880Z,84.48
2019-01-04T06:43:25.852Z,84.80
2019-01-04T06:44:25.852Z,84.48
2019-01-04T06:45:25.871Z,84.07
2019-01-04T06:46:25.825Z,83.55
2019-01-04T06:47:25.819Z,83.86
2019-01-04T06:48:25.805Z,83.97
2019-01-04T06:49:25.791Z,84.17
2019-01-04T06:50:25.776Z,83.97
2019-01-04T06:51:27.845Z,84.48
2019-01-04T06:52:25.753Z,85.11
2019-01-04T06:53:25.743Z,84.69
2019-01-04T06:54:25.772Z,83.24
2019-01-04T06:55:25.731Z,83.97
2019-01-04T06:56:25.716Z,83.34
2019-01-04T06:57:25.755Z,84.17
2019-01-04T06:58:25.723Z,83.72
2019-01-04T06:59:25.719Z,83.65
2019-01-04T07:00:25.668Z,83.86
2019-01-04T07:01:25.702Z,83.80
2019-01-04T07:02:25.648Z,83.86
2019-01-04T07:03:25.646Z,84.48
2019-01-04T07:04:25.687Z,84.28
2019-01-04T07:05:25.627Z,84.63
2019-01-04T07:06:25.605Z,84.63
2019-01-04T07:07:25.591Z,84.59
2019-01-04T07:08:25.579Z,84.59
2019-01-04T07:09:25.569Z,84.59
2019-01-04T07:10:25.620Z,85.04
2019-01-04T07:11:25.617Z,85.25
2019-01-04T07:12:25.541Z,85.56
2019-01-04T07:13:25.533Z,85.35
2019-01-04T07:14:25.528Z,85.77
2019-01-04T07:15:25.596Z,85.77
2019-01-04T07:16:25.494Z,85.08
2019-01-04T07:17:25.545Z,86.22
2019-01-04T07:18:25.536Z,85.91
2019-01-04T07:19:25.461Z,86.12
2019-01-04T07:20:25.449Z,86.12
2019-01-04T07:21:25.440Z,85.91
2019-01-04T07:22:25.432Z,85.71
2019-01-04T07:23:25.467Z,86.22
2019-01-04T07:24:25.415Z,86.43
2019-01-04T07:25:25.462Z,86.33
2019-01-04T07:26:25.426Z,86.22
2019-01-04T07:27:25.403Z,86.33
2019-01-04T07:28:25.370Z,86.29
2019-01-04T07:29:25.397Z,86.08
2019-01-04T07:30:25.342Z,85.35
2019-01-04T07:31:25.344Z,85.81
2019-01-04T07:32:25.368Z,86.39
2019-01-04T07:33:25.311Z,86.60
2019-01-04T07:34:25.296Z,86.18
2019-01-04T07:35:25.289Z,86.18
2019-01-04T07:36:25.278Z,86.18
2019-01-04T07:37:25.314Z,85.66
2019-01-04T07:38:25.289Z,85.97
2019-01-04T07:39:25.250Z,86.18
2019-01-04T07:40:25.274Z,85.77
2019-01-04T07:41:25.246Z,86.49
2019-01-04T07:42:25.315Z,86.29
2019-01-04T07:43:25.248Z,86.29
2019-01-04T07:44:25.199Z,86.15
2019-01-04T07:45:25.183Z,85.25
2019-01-04T07:46:25.170Z,85.87
2019-01-04T07:47:25.157Z,85.77
2019-01-04T07:48:25.202Z,85.56
2019-01-04T07:49:25.139Z,85.31
2019-01-04T07:50:25.139Z,85.35
2019-01-04T07:51:25.161Z,85.31
2019-01-04T07:52:25.119Z,85.21
2019-01-04T07:53:25.157Z,85.56
2019-01-04T07:54:25.102Z,85.25
2019-01-04T07:55:25.081Z,86.08
2019-01-04T07:56:25.124Z,86.29
2019-01-04T07:57:25.060Z,85.04
2019-01-04T07:58:25.097Z,86.29
2019-01-04T07:59:25.029Z,86.08
2019-01-04T08:00:25.030Z,85.87
2019-01-04T08:01:25.061Z,86.08
2019-01-04T08:02:25.000Z,85.35
2019-01-04T08:03:24.986Z,85.35
2019-01-04T08:04:24.984Z,85.35
2019-01-04T08:05:24.976Z,85.25
2019-01-04T08:06:24.949Z,85.46
2019-01-04T08:07:25.071Z,85.29
2019-01-04T08:08:24.927Z,85.35
2019-01-04T08:09:24.925Z,85.35
2019-01-04T08:10:24.911Z,85.25
2019-01-04T08:11:24.902Z,85.46
2019-01-04T08:12:24.917Z,85.56
2019-01-04T08:13:24.943Z,85.25
2019-01-04T08:14:24.871Z,85.66
2019-01-04T08:15:24.942Z,85.50
2019-01-04T08:16:24.892Z,85.60
2019-01-04T08:17:24.901Z,86.12
2019-01-04T08:18:24.836Z,86.29
2019-01-04T08:19:24.815Z,84.94
2019-01-04T08:20:24.798Z,86.12
2019-01-04T08:21:24.804Z,85.66
2019-01-04T08:22:24.784Z,86.12
2019-01-04T08:23:24.834Z,86.29
2019-01-04T08:24:24.759Z,84.98
2019-01-04T08:25:24.743Z,85.39
2019-01-04T08:26:24.794Z,86.22
2019-01-04T08:27:24.773Z,86.54
2019-01-04T08:28:24.721Z,86.22
2019-01-04T08:29:24.709Z,85.91
2019-01-04T08:30:24.720Z,85.91
2019-01-04T08:31:24.690Z,86.02
2019-01-04T08:32:24.736Z,86.12
2019-01-04T08:33:24.665Z,86.02
2019-01-04T08:34:24.646Z,85.91
2019-01-04T08:35:24.641Z,86.12
2019-01-04T08:36:24.652Z,86.33
2019-01-04T08:37:24.676Z,85.95
2019-01-04T08:38:24.608Z,86.12
2019-01-04T08:39:24.613Z,85.74
2019-01-04T08:40:24.581Z,86.64
2019-01-04T08:41:24.575Z,85.95
2019-01-04T08:42:24.569Z,85.95
2019-01-04T08:43:24.597Z,86.57
2019-01-04T08:44:24.544Z,86.78
2019-01-04T08:45:24.570Z,86.68
2019-01-04T08:46:24.521Z,86.68
2019-01-04T08:47:24.506Z,86.26
2019-01-04T08:48:24.501Z,86.47
2019-01-04T08:49:24.579Z,85.95
2019-01-04T08:50:24.472Z,86.22
2019-01-04T08:51:24.469Z,85.95
2019-01-04T08:52:24.458Z,86.54
2019-01-04T08:53:24.447Z,85.71
2019-01-04T08:54:24.455Z,85.39
2019-01-04T08:55:24.466Z,85.19
2019-01-04T08:56:24.446Z,85.39
2019-01-04T08:57:24.405Z,85.04
2019-01-04T08:58:24.442Z,84.90
2019-01-04T08:59:24.382Z,84.48
2019-01-04T09:00:24.373Z,84.11
2019-01-04T09:01:24.366Z,84.48
2019-01-04T09:02:24.371Z,83.24
2019-01-04T09:03:24.335Z,83.45
2019-01-04T09:04:24.378Z,83.86
2019-01-04T09:05:24.321Z,83.76
2019-01-04T09:06:24.310Z,83.03
2019-01-04T09:07:24.355Z,83.86
2019-01-04T09:08:24.287Z,83.55
2019-01-04T09:09:24.271Z,83.03
2019-01-04T09:10:24.299Z,82.79
2019-01-04T09:11:24.284Z,82.79
2019-01-04T09:12:24.240Z,84.03
2019-01-04T09:13:24.304Z,83.10
2019-01-04T09:14:24.223Z,83.20
2019-01-04T09:15:24.221Z,83.10
2019-01-04T09:16:24.203Z,82.86
2019-01-04T09:17:24.230Z,81.92
2019-01-04T09:18:24.173Z,82.65
2019-01-04T09:19:24.186Z,81.85
2019-01-04T09:20:24.179Z,82.44
2019-01-04T09:21:24.143Z,82.89
2019-01-04T09:22:24.146Z,82.58
2019-01-04T09:23:24.186Z,82.17
2019-01-04T09:24:24.166Z,82.86
2019-01-04T09:25:24.097Z,82.13
2019-01-04T09:26:24.090Z,81.78
2019-01-04T09:27:24.097Z,81.37
2019-01-04T09:28:24.131Z,81.78
2019-01-04T09:29:24.063Z,81.37
2019-01-04T09:30:24.055Z,80.95
2019-01-04T09:31:24.033Z,80.88
2019-01-04T09:32:24.024Z,82.48
2019-01-04T09:33:24.054Z,82.17
2019-01-04T09:34:24.055Z,81.75
2019-01-04T09:35:24.019Z,83.20
2019-01-04T09:36:23.988Z,81.71
2019-01-04T09:37:23.974Z,81.40
2019-01-04T09:38:24.020Z,81.71
2019-01-04T09:39:24.004Z,81.20
2019-01-04T09:40:23.938Z,80.57
2019-01-04T09:41:23.934Z,81.30
2019-01-04T09:42:23.916Z,81.51
2019-01-04T09:43:23.916Z,81.51
2019-01-04T09:44:23.906Z,80.47
2019-01-04T09:45:23.931Z,81.61
2019-01-04T09:46:23.873Z,81.30
2019-01-04T09:47:23.864Z,81.40
2019-01-04T09:48:23.870Z,80.12
2019-01-04T09:49:23.859Z,80.68
2019-01-04T09:50:23.829Z,81.20
2019-01-04T09:51:23.880Z,81.82
2019-01-04T09:52:23.819Z,81.71
2019-01-04T09:53:23.798Z,82.03
2019-01-04T09:54:23.852Z,82.03
2019-01-04T09:55:23.776Z,81.61
2019-01-04T09:56:23.765Z,82.09
2019-01-04T09:57:23.881Z,81.78
2019-01-04T09:58:23.746Z,81.92
2019-01-04T09:59:23.733Z,81.85
2019-01-04T10:00:23.725Z,81.85
2019-01-04T10:01:23.734Z,82.79
2019-01-04T10:02:23.753Z,82.79
2019-01-04T10:03:23.693Z,83.00
2019-01-04T10:04:23.699Z,82.95
2019-01-04T10:05:23.699Z,82.75
2019-01-04T10:06:23.660Z,81.85
2019-01-04T10:07:23.666Z,82.79
2019-01-04T10:08:23.688Z,83.20
2019-01-04T10:09:23.655Z,82.95
2019-01-04T10:10:23.620Z,82.75
2019-01-04T10:11:23.610Z,82.75
2019-01-04T10:12:23.601Z,82.86
2019-01-04T10:13:23.643Z,81.82
2019-01-04T10:14:23.580Z,81.82
2019-01-04T10:15:23.591Z,81.61
2019-01-04T10:16:23.550Z,81.82
2019-01-04T10:17:23.546Z,81.61
2019-01-04T10:18:23.567Z,81.96
2019-01-04T10:19:23.578Z,82.06
2019-01-04T10:20:23.505Z,83.37
2019-01-04T10:21:23.510Z,82.75
2019-01-04T10:22:23.488Z,82.34
2019-01-04T10:23:23.570Z,82.86
2019-01-04T10:24:23.527Z,82.34
2019-01-04T10:25:23.477Z,83.16
2019-01-04T10:26:23.541Z,83.20
2019-01-04T10:27:23.428Z,82.23
2019-01-04T10:28:23.483Z,83.20
2019-01-04T10:29:23.506Z,83.78
2019-01-04T10:30:23.397Z,83.00
2019-01-04T10:31:23.394Z,83.78
2019-01-04T10:32:23.397Z,84.23
2019-01-04T10:33:23.372Z,84.34
2019-01-04T10:34:23.365Z,84.55
2019-01-04T10:35:23.406Z,85.69
2019-01-04T10:36:23.349Z,85.27
2019-01-04T10:37:23.322Z,84.86
2019-01-04T10:38:23.313Z,84.86
2019-01-04T10:39:23.308Z,86.00
2019-01-04T10:40:23.296Z,86.31
2019-01-04T10:41:23.339Z,86.15
2019-01-04T10:42:23.301Z,86.25
2019-01-04T10:43:23.325Z,86.04
2019-01-04T10:44:23.248Z,85.73
2019-01-04T10:45:23.292Z,85.52
2019-01-04T10:46:23.228Z,86.25
2019-01-04T10:47:23.263Z,86.10
2019-01-04T10:48:23.204Z,85.79
2019-01-04T10:49:23.205Z,85.89
2019-01-04T10:50:23.185Z,85.17
2019-01-04T10:51:23.183Z,85.38
2019-01-04T10:52:24.096Z,86.25
2019-01-04T10:53:23.201Z,86.00
2019-01-04T10:54:23.144Z,86.66
2019-01-04T10:55:23.164Z,85.83
2019-01-04T10:56:23.119Z,86.45
2019-01-04T10:57:23.121Z,86.15
2019-01-04T10:58:23.156Z,86.25
2019-01-04T10:59:23.137Z,85.94
2019-01-04T11:00:23.092Z,86.41
2019-01-04T11:01:23.151Z,86.72
2019-01-04T11:02:23.069Z,86.10
2019-01-04T11:03:23.128Z,86.72
2019-01-04T11:04:23.076Z,86.99
2019-01-04T11:05:23.078Z,86.47
2019-01-04T11:06:23.011Z,86.27
2019-01-04T11:07:23.024Z,86.47
2019-01-04T11:08:22.997Z,86.17
2019-01-04T11:09:22.976Z,85.86
2019-01-04T11:10:23.036Z,85.96
2019-01-04T11:11:22.959Z,85.69
2019-01-04T11:12:22.959Z,85.79
2019-01-04T11:13:22.982Z,86.31
2019-01-04T11:14:23.237Z,86.21
2019-01-04T11:15:22.959Z,87.24
2019-01-04T11:16:22.927Z,86.41
2019-01-04T11:17:22.913Z,86.10
2019-01-04T11:18:22.877Z,86.21
2019-01-04T11:19:22.915Z,86.37
2019-01-04T11:20:22.900Z,86.17
2019-01-04T11:21:22.856Z,85.13
2019-01-04T11:22:22.850Z,85.75
2019-01-04T11:23:22.837Z,86.07
2019-01-04T11:24:22.875Z,85.44
2019-01-04T11:25:22.854Z,84.92
2019-01-04T11:26:22.792Z,84.41
2019-01-04T11:27:22.791Z,85.13
2019-01-04T11:28:22.838Z,85.55
2019-01-04T11:29:22.764Z,85.19
2019-01-04T11:30:22.940Z,84.78
2019-01-04T11:31:22.777Z,83.95
2019-01-04T11:32:22.739Z,83.75
2019-01-04T11:33:22.774Z,84.58
2019-01-04T11:34:22.708Z,84.47
2019-01-04T11:35:22.731Z,84.37
2019-01-04T11:36:22.754Z,83.95
2019-01-04T11:37:22.697Z,83.44
2019-01-04T11:38:22.677Z,84.06
2019-01-04T11:39:22.674Z,84.16
2019-01-04T11:40:22.673Z,83.54
2019-01-04T11:41:22.647Z,83.64
2019-01-04T11:42:22.682Z,84.64
2019-01-04T11:43:22.665Z,83.95
2019-01-04T11:44:22.657Z,84.01
2019-01-04T11:45:22.588Z,83.23
2019-01-04T11:46:22.577Z,82.78
2019-01-04T11:47:22.592Z,83.33
2019-01-04T11:48:22.599Z,82.60
2019-01-04T11:49:22.553Z,83.02
2019-01-04T11:50:22.857Z,82.81
2019-01-04T11:51:22.548Z,83.75
2019-01-04T11:52:22.511Z,83.75
2019-01-04T11:53:22.549Z,82.81
2019-01-04T11:54:22.503Z,84.06
2019-01-04T11:55:22.482Z,83.99
2019-01-04T11:56:22.464Z,83.75
2019-01-04T11:57:22.463Z,83.75
2019-01-04T11:58:22.478Z,84.16
2019-01-04T11:59:22.481Z,83.85
2019-01-04T12:00:22.433Z,83.44
2019-01-04T12:01:22.423Z,83.64
2019-01-04T12:02:26.306Z,83.44
2019-01-04T12:03:22.409Z,83.02
2019-01-04T12:04:22.386Z,83.33
2019-01-04T12:05:22.416Z,83.23
2019-01-04T12:06:22.435Z,84.06
2019-01-04T12:07:22.357Z,83.54
2019-01-04T12:08:22.346Z,82.71
2019-01-04T12:09:22.338Z,83.78
2019-01-04T12:10:22.355Z,83.47
2019-01-04T12:11:22.350Z,83.78
2019-01-04T12:12:22.333Z,84.30
2019-01-04T12:13:22.293Z,83.47
2019-01-04T12:14:22.327Z,83.16
2019-01-04T12:15:22.339Z,83.78
2019-01-04T12:16:22.322Z,83.54
2019-01-04T12:17:22.530Z,83.75
2019-01-04T12:18:22.272Z,84.09
2019-01-04T12:19:22.224Z,83.78
2019-01-04T12:20:22.255Z,83.68
2019-01-04T12:21:22.218Z,83.33
2019-01-04T12:22:22.196Z,82.92
2019-01-04T12:23:22.291Z,83.02
2019-01-04T12:24:22.169Z,82.60
2019-01-04T12:25:22.171Z,83.02
2019-01-04T12:26:22.149Z,83.12
2019-01-04T12:27:22.157Z,82.60
2019-01-04T12:28:22.123Z,82.81
2019-01-04T12:29:22.170Z,82.81
2019-01-04T12:30:22.109Z,82.71
2019-01-04T12:31:22.094Z,82.92
2019-01-04T12:32:22.091Z,82.81
2019-01-04T12:33:22.072Z,82.29
2019-01-04T12:34:22.066Z,82.19
2019-01-04T12:35:22.100Z,81.95
2019-01-04T12:36:22.044Z,81.57
2019-01-04T12:37:22.053Z,82.26
2019-01-04T12:38:24.174Z,82.78
2019-01-04T12:39:22.002Z,80.60
2019-01-04T12:40:21.997Z,81.33
2019-01-04T12:41:22.058Z,80.81
2019-01-04T12:42:21.970Z,81.12
2019-01-04T12:43:21.984Z,81.54
2019-01-04T12:44:21.957Z,81.23
2019-01-04T12:45:21.946Z,81.64
2019-01-04T12:46:21.930Z,81.54
2019-01-04T12:47:21.960Z,80.71
2019-01-04T12:48:21.916Z,81.12
2019-01-04T12:49:21.912Z,80.08
2019-01-04T12:50:21.892Z,81.74
2019-01-04T12:51:21.881Z,81.54
2019-01-04T12:52:21.886Z,81.54